createdAt,value
2023-03-20T00:00:31.882Z,4.46
2023-03-20T00:02:58.365Z,4.39
2023-03-20T00:05:24.785Z,4.52
2023-03-20T00:07:51.302Z,4.56
2023-03-20T00:10:17.859Z,4.57
2023-03-20T00:12:44.385Z,4.71
2023-03-20T00:15:16.971Z,4.58
2023-03-20T00:17:43.364Z,4.64
2023-03-20T00:20:14.023Z,4.51
2023-03-20T00:22:40.469Z,4.66
2023-03-20T00:25:07.777Z,4.65
2023-03-20T00:27:34.223Z,4.74
2023-03-20T00:30:00.677Z,4.85
2023-03-20T00:32:27.101Z,4.90
2023-03-20T00:34:53.496Z,5.01
2023-03-20T00:37:19.906Z,5.16
2023-03-20T00:39:46.403Z,5.00
2023-03-20T00:42:16.844Z,4.96
2023-03-20T00:44:44.807Z,4.70
2023-03-20T00:47:16.947Z,4.72
2023-03-20T00:49:43.371Z,4.68
2023-03-20T00:52:09.943Z,4.73
2023-03-20T00:54:36.417Z,4.48
2023-03-20T00:57:04.049Z,4.38
2023-03-20T00:59:31.354Z,4.46
2023-03-20T01:01:58.254Z,4.45
2023-03-20T01:04:24.765Z,4.40
2023-03-20T01:06:51.221Z,4.33
2023-03-20T01:09:17.687Z,4.23
2023-03-20T01:11:44.093Z,4.21
2023-03-20T01:14:12.556Z,4.23
2023-03-20T01:16:39.042Z,4.15
2023-03-20T01:19:05.590Z,4.12
2023-03-20T01:21:32.091Z,4.23
2023-03-20T01:23:58.642Z,4.26
2023-03-20T01:26:29.378Z,4.39
2023-03-20T01:28:55.795Z,4.23
2023-03-20T01:31:22.357Z,4.18
2023-03-20T01:33:48.793Z,4.23
2023-03-20T01:36:15.606Z,4.30
2023-03-20T01:38:42.162Z,4.17
2023-03-20T01:41:08.568Z,4.08
2023-03-20T01:43:35.067Z,4.13
2023-03-20T01:46:13.857Z,3.97
2023-03-20T01:48:52.424Z,4.04
2023-03-20T01:51:19.390Z,3.91
2023-03-20T01:53:45.919Z,3.88
2023-03-20T01:56:12.612Z,3.95
2023-03-20T01:58:39.155Z,3.89
2023-03-20T02:01:06.241Z,3.88
2023-03-20T02:03:32.734Z,3.86
2023-03-20T02:05:59.164Z,3.71
2023-03-20T02:08:29.429Z,3.80
2023-03-20T02:10:56.046Z,3.84
2023-03-20T02:13:22.444Z,3.84
2023-03-20T02:15:55.673Z,3.83
2023-03-20T02:18:22.128Z,3.68
2023-03-20T02:20:54.323Z,3.68
2023-03-20T02:23:20.766Z,3.70
2023-03-20T02:26:07.359Z,3.73
2023-03-20T02:28:42.877Z,3.79
2023-03-20T02:31:09.332Z,3.68
2023-03-20T02:33:38.818Z,3.69
2023-03-20T02:36:15.099Z,3.77
2023-03-20T02:39:00.602Z,3.58
2023-03-20T02:41:27.131Z,3.68
2023-03-20T02:43:59.781Z,3.78
2023-03-20T02:46:32.355Z,3.71
2023-03-20T02:49:10.352Z,3.75
2023-03-20T02:51:40.569Z,3.78
2023-03-20T02:54:24.621Z,3.76
2023-03-20T02:57:05.273Z,3.72
2023-03-20T02:59:34.846Z,3.82
2023-03-20T03:02:08.604Z,3.76
2023-03-20T03:04:53.940Z,3.71
2023-03-20T03:07:21.100Z,3.73
2023-03-20T03:09:57.192Z,3.80
2023-03-20T03:12:24.862Z,3.78
2023-03-20T03:15:00.194Z,3.86
2023-03-20T03:17:26.850Z,3.87
2023-03-20T03:19:54.389Z,3.87
2023-03-20T03:22:20.883Z,3.90
2023-03-20T03:24:47.942Z,4.13
2023-03-20T03:27:17.367Z,4.19
2023-03-20T03:29:43.759Z,4.35
2023-03-20T03:32:21.340Z,4.35
2023-03-20T03:34:47.764Z,4.31
2023-03-20T03:37:17.252Z,4.43
2023-03-20T03:39:53.715Z,4.51
2023-03-20T03:42:32.513Z,4.65
2023-03-20T03:45:17.418Z,4.75
2023-03-20T03:48:01.555Z,4.85
2023-03-20T03:50:44.812Z,4.85
2023-03-20T03:53:11.367Z,4.85
2023-03-20T03:55:39.728Z,4.89
2023-03-20T03:58:08.534Z,4.91
2023-03-20T04:00:34.978Z,4.84
2023-03-20T04:03:01.492Z,4.93
2023-03-20T04:05:28.654Z,4.95
2023-03-20T04:07:55.694Z,4.90
2023-03-20T04:10:22.118Z,4.93
2023-03-20T04:12:48.570Z,4.97
2023-03-20T04:15:15.362Z,5.00
2023-03-20T04:17:41.820Z,5.03
2023-03-20T04:20:08.516Z,5.09
2023-03-20T04:22:34.925Z,5.09
2023-03-20T04:25:02.021Z,5.11
2023-03-20T04:27:28.691Z,5.16
2023-03-20T04:29:55.270Z,5.14
2023-03-20T04:32:21.713Z,5.20
2023-03-20T04:34:48.097Z,5.21
2023-03-20T04:37:14.555Z,5.22
2023-03-20T04:39:40.962Z,5.18
2023-03-20T04:42:07.471Z,5.21
2023-03-20T04:44:33.933Z,5.12
2023-03-20T04:47:00.542Z,5.23
2023-03-20T04:49:26.993Z,5.23
2023-03-20T04:51:53.371Z,5.28
2023-03-20T04:54:19.791Z,5.27
2023-03-20T04:56:46.229Z,5.22
2023-03-20T04:59:12.631Z,5.22
2023-03-20T05:01:39.125Z,5.29
2023-03-20T05:04:05.711Z,5.31
2023-03-20T05:06:32.243Z,5.29
2023-03-20T05:08:58.868Z,5.32
2023-03-20T05:11:25.775Z,5.38
2023-03-20T05:13:52.238Z,5.42
2023-03-20T05:16:18.768Z,5.37
2023-03-20T05:18:45.465Z,5.51
2023-03-20T05:21:11.860Z,5.46
2023-03-20T05:23:38.376Z,5.36
2023-03-20T05:26:04.930Z,5.38
2023-03-20T05:28:31.407Z,5.43
2023-03-20T05:30:57.828Z,5.35
2023-03-20T05:33:24.353Z,5.37
2023-03-20T05:35:50.767Z,5.36
2023-03-20T05:38:17.238Z,5.36
2023-03-20T05:40:43.613Z,5.46
2023-03-20T05:43:10.100Z,5.41
2023-03-20T05:45:36.792Z,5.38
2023-03-20T05:48:03.479Z,5.42
2023-03-20T05:50:30.345Z,5.46
2023-03-20T05:52:56.726Z,5.55
2023-03-20T05:55:23.188Z,5.62
2023-03-20T05:57:50.039Z,5.60
2023-03-20T06:00:16.762Z,5.62
2023-03-20T06:02:44.926Z,5.64
2023-03-20T06:05:13.324Z,5.65
2023-03-20T06:07:39.807Z,5.66
2023-03-20T06:10:06.427Z,5.67
2023-03-20T06:12:32.856Z,5.70
2023-03-20T06:14:59.268Z,5.81
2023-03-20T06:17:25.692Z,5.84
2023-03-20T06:19:52.189Z,5.92
2023-03-20T06:22:18.619Z,5.91
2023-03-20T06:24:45.284Z,5.93
2023-03-20T06:27:11.745Z,5.97
2023-03-20T06:29:38.163Z,6.03
2023-03-20T06:32:07.243Z,6.04
2023-03-20T06:34:34.272Z,6.14
2023-03-20T06:37:01.274Z,6.15
2023-03-20T06:39:27.649Z,6.19
2023-03-20T06:41:54.448Z,6.24
2023-03-20T06:44:22.539Z,6.35
2023-03-20T06:46:49.011Z,6.38
2023-03-20T06:49:15.519Z,6.41
2023-03-20T06:51:41.881Z,6.43
2023-03-20T06:54:08.228Z,6.53
2023-03-20T06:56:34.703Z,6.64
2023-03-20T06:59:01.173Z,6.60
2023-03-20T07:04:19.212Z,6.74
2023-03-20T07:06:45.718Z,6.77
2023-03-20T07:09:13.223Z,6.76
2023-03-20T07:11:39.674Z,6.77
2023-03-20T07:14:06.186Z,6.83
2023-03-20T07:16:38.189Z,6.90
2023-03-20T07:19:04.768Z,6.96
2023-03-20T07:21:31.280Z,7.15
2023-03-20T07:23:58.169Z,7.05
2023-03-20T07:26:24.596Z,7.11
2023-03-20T07:28:51.056Z,7.05
2023-03-20T07:31:21.545Z,7.10
2023-03-20T07:33:48.624Z,7.19
2023-03-20T07:36:15.066Z,7.20
2023-03-20T07:38:41.568Z,7.14
2023-03-20T07:41:08.215Z,7.12
2023-03-20T07:43:34.654Z,7.00
2023-03-20T07:46:04.774Z,7.01
2023-03-20T07:48:32.121Z,6.95
2023-03-20T07:50:58.520Z,6.94
2023-03-20T07:53:24.998Z,6.84
2023-03-20T07:55:51.443Z,6.84
2023-03-20T07:58:17.831Z,6.86
2023-03-20T08:00:44.285Z,6.86
2023-03-20T08:03:11.234Z,6.91
2023-03-20T08:05:37.949Z,6.94
2023-03-20T08:08:05.280Z,7.01
2023-03-20T08:10:31.873Z,6.96
2023-03-20T08:12:58.326Z,7.01
2023-03-20T08:15:25.077Z,6.98
2023-03-20T08:17:51.542Z,7.03
2023-03-20T08:20:18.130Z,7.08
2023-03-20T08:22:44.695Z,6.99
2023-03-20T08:25:12.124Z,7.08
2023-03-20T08:27:38.513Z,7.10
2023-03-20T08:30:05.099Z,7.26
2023-03-20T08:32:31.641Z,7.24
2023-03-20T08:34:58.020Z,7.47
2023-03-20T08:37:25.071Z,7.59
2023-03-20T08:39:51.593Z,7.58
2023-03-20T08:42:18.095Z,7.61
2023-03-20T08:44:45.042Z,7.54
2023-03-20T08:47:11.445Z,7.49
2023-03-20T08:49:38.018Z,7.79
2023-03-20T08:52:04.535Z,9.05
2023-03-20T08:54:31.032Z,11.92
2023-03-20T08:56:57.473Z,12.75
2023-03-20T08:59:23.866Z,12.25
2023-03-20T09:01:53.690Z,11.06
2023-03-20T09:04:20.108Z,9.95
2023-03-20T09:06:48.052Z,10.09
2023-03-20T09:09:14.554Z,10.24
2023-03-20T09:11:41.016Z,10.10
2023-03-20T09:14:08.012Z,10.79
2023-03-20T09:16:34.562Z,12.51
2023-03-20T09:19:00.993Z,11.78
2023-03-20T09:21:27.454Z,11.50
2023-03-20T09:23:53.956Z,11.61
2023-03-20T09:26:20.957Z,11.38
2023-03-20T09:28:47.380Z,10.85
2023-03-20T09:31:13.945Z,10.61
2023-03-20T09:33:40.941Z,10.30
2023-03-20T09:36:07.566Z,10.24
2023-03-20T09:38:34.361Z,10.02
2023-03-20T09:41:01.184Z,9.96
2023-03-20T09:43:46.978Z,10.12
2023-03-20T09:46:26.382Z,10.06
2023-03-20T09:48:54.736Z,10.11
2023-03-20T09:51:27.650Z,9.82
2023-03-20T09:54:01.013Z,9.80
2023-03-20T09:56:28.808Z,9.80
2023-03-20T09:58:58.769Z,10.20
2023-03-20T10:01:45.409Z,10.49
2023-03-20T10:04:12.933Z,10.70
2023-03-20T10:06:39.498Z,10.78
2023-03-20T10:09:13.913Z,12.34
2023-03-20T10:11:46.516Z,14.14
2023-03-20T10:14:22.966Z,14.58
2023-03-20T10:16:49.341Z,15.65
2023-03-20T10:19:28.889Z,15.83
2023-03-20T10:22:01.623Z,14.71
2023-03-20T10:24:36.297Z,14.75
2023-03-20T10:27:05.851Z,13.72
2023-03-20T10:29:41.055Z,14.67
2023-03-20T10:32:42.850Z,15.14
2023-03-20T10:35:15.606Z,15.89
2023-03-20T10:37:54.515Z,17.11
2023-03-20T10:40:29.015Z,17.14
2023-03-20T10:43:15.680Z,16.09
2023-03-20T10:45:42.296Z,16.57
2023-03-20T10:48:14.851Z,16.88
2023-03-20T10:50:45.622Z,16.91
2023-03-20T10:53:18.985Z,17.02
2023-03-20T10:55:45.398Z,16.08
2023-03-20T10:58:14.201Z,16.24
2023-03-20T11:00:40.681Z,16.07
2023-03-20T11:03:07.119Z,15.44
2023-03-20T11:05:36.579Z,15.30
2023-03-20T11:08:11.739Z,14.29
2023-03-20T11:10:39.909Z,15.43
2023-03-20T11:13:24.914Z,15.55
2023-03-20T11:15:51.893Z,14.63
2023-03-20T11:18:18.769Z,13.93
2023-03-20T11:20:46.813Z,13.51
2023-03-20T11:23:17.354Z,12.99
2023-03-20T11:25:52.009Z,13.00
2023-03-20T11:28:26.897Z,12.87
2023-03-20T11:31:04.898Z,12.38
2023-03-20T11:33:32.766Z,12.05
2023-03-20T11:35:59.391Z,12.31
2023-03-20T11:38:26.742Z,12.35
2023-03-20T11:40:53.111Z,12.17
2023-03-20T11:43:22.751Z,11.97
2023-03-20T11:45:50.793Z,11.69
2023-03-20T11:48:18.610Z,11.63
2023-03-20T11:50:46.426Z,11.47
2023-03-20T11:53:19.932Z,11.16
2023-03-20T11:55:47.085Z,11.19
2023-03-20T11:58:14.839Z,11.12
2023-03-20T12:00:42.668Z,10.95
2023-03-20T12:03:32.182Z,11.05
2023-03-20T12:06:01.743Z,11.13
2023-03-20T12:08:28.447Z,11.04
2023-03-20T12:10:59.344Z,11.07
2023-03-20T12:13:27.631Z,10.93
2023-03-20T12:16:04.721Z,11.15
2023-03-20T12:18:47.004Z,11.18
2023-03-20T12:21:19.721Z,11.25
2023-03-20T12:23:51.695Z,11.41
2023-03-20T12:26:20.211Z,11.36
2023-03-20T12:28:46.561Z,11.50
2023-03-20T12:31:22.085Z,11.91
2023-03-20T12:34:07.204Z,11.52
2023-03-20T12:36:34.651Z,11.57
2023-03-20T12:39:04.741Z,11.74
2023-03-20T12:41:31.641Z,11.81
2023-03-20T12:44:16.855Z,11.40
2023-03-20T12:46:43.521Z,11.62
2023-03-20T12:49:09.922Z,11.66
2023-03-20T12:51:36.309Z,11.65
2023-03-20T12:54:07.663Z,11.42
2023-03-20T12:56:49.537Z,11.63
2023-03-20T12:59:22.374Z,11.43
2023-03-20T13:01:52.777Z,11.42
2023-03-20T13:04:25.381Z,11.71
2023-03-20T13:06:55.627Z,11.87
2023-03-20T13:09:22.616Z,11.81
2023-03-20T13:11:52.022Z,11.49
2023-03-20T13:14:20.961Z,11.43
2023-03-20T13:17:00.126Z,11.44
2023-03-20T13:19:37.485Z,11.45
2023-03-20T13:22:03.988Z,11.49
2023-03-20T13:24:38.837Z,11.48
2023-03-20T13:27:08.336Z,11.52
2023-03-20T13:29:44.594Z,11.40
2023-03-20T13:32:21.297Z,11.44
2023-03-20T13:34:54.024Z,11.29
2023-03-20T13:37:24.270Z,11.47
2023-03-20T13:39:54.052Z,11.47
2023-03-20T13:42:22.031Z,11.35
2023-03-20T13:44:48.860Z,11.39
2023-03-20T13:47:15.544Z,11.58
2023-03-20T13:49:43.863Z,11.70
2023-03-20T13:52:11.112Z,11.57
2023-03-20T13:55:12.932Z,11.66
2023-03-20T13:57:45.074Z,11.60
2023-03-20T14:00:13.613Z,11.51
2023-03-20T14:03:00.600Z,11.57
2023-03-20T14:05:27.078Z,11.68
2023-03-20T14:07:57.165Z,11.70
2023-03-20T14:10:24.574Z,11.50
2023-03-20T14:12:52.693Z,11.57
2023-03-20T14:15:19.289Z,11.54
2023-03-20T14:17:47.121Z,11.63
2023-03-20T14:20:26.467Z,11.33
2023-03-20T14:22:52.985Z,11.34
2023-03-20T14:25:19.834Z,11.33
2023-03-20T14:28:00.488Z,11.34
2023-03-20T14:30:29.880Z,11.29
2023-03-20T14:33:06.514Z,11.23
2023-03-20T14:35:36.908Z,11.25
2023-03-20T14:38:26.680Z,11.24
2023-03-20T14:40:56.641Z,11.30
2023-03-20T14:43:23.099Z,11.36
2023-03-20T14:45:54.032Z,11.32
2023-03-20T14:48:31.358Z,11.30
2023-03-20T14:51:03.909Z,11.38
2023-03-20T14:53:30.334Z,11.39
2023-03-20T14:55:57.652Z,11.43
2023-03-20T14:58:33.638Z,11.13
2023-03-20T15:01:04.554Z,11.32
2023-03-20T15:03:31.071Z,11.16
2023-03-20T15:05:58.432Z,11.12
2023-03-20T15:08:25.774Z,11.19
2023-03-20T15:10:56.241Z,11.09
2023-03-20T15:13:22.702Z,11.12
2023-03-20T15:15:53.062Z,10.95
2023-03-20T15:18:20.539Z,11.12
2023-03-20T15:20:47.035Z,11.10
2023-03-20T15:23:15.402Z,11.00
2023-03-20T15:25:42.637Z,10.86
2023-03-20T15:28:11.558Z,10.88
2023-03-20T15:30:38.555Z,10.80
2023-03-20T15:33:05.322Z,10.71
2023-03-20T15:35:31.833Z,10.63
2023-03-20T15:37:58.564Z,10.66
2023-03-20T15:40:47.494Z,10.67
2023-03-20T15:43:23.054Z,10.67
2023-03-20T15:45:49.452Z,10.71
2023-03-20T15:48:19.391Z,10.71
2023-03-20T15:50:46.248Z,10.70
2023-03-20T15:53:15.643Z,10.72
2023-03-20T15:55:42.146Z,10.74
2023-03-20T15:58:08.571Z,10.66
2023-03-20T16:00:36.915Z,10.70
2023-03-20T16:03:04.266Z,10.75
2023-03-20T16:05:30.754Z,10.71
2023-03-20T16:07:57.176Z,10.64
2023-03-20T16:10:29.796Z,10.61
2023-03-20T16:12:56.287Z,10.58
2023-03-20T16:15:27.148Z,10.41
2023-03-20T16:17:54.506Z,10.39
2023-03-20T16:20:20.989Z,10.37
2023-03-20T16:22:47.402Z,10.44
2023-03-20T16:25:17.390Z,10.35
2023-03-20T16:27:45.261Z,10.28
2023-03-20T16:30:16.114Z,10.24
2023-03-20T16:32:42.890Z,10.25
2023-03-20T16:35:22.418Z,10.16
2023-03-20T16:37:50.520Z,9.94
2023-03-20T16:40:17.105Z,9.85
2023-03-20T16:42:43.675Z,9.84
2023-03-20T16:45:18.222Z,9.72
2023-03-20T16:47:44.732Z,9.70
2023-03-20T16:50:12.214Z,9.68
2023-03-20T16:52:39.592Z,9.56
2023-03-20T16:55:07.279Z,9.47
2023-03-20T16:57:35.053Z,9.45
2023-03-20T17:00:03.610Z,9.35
2023-03-20T17:02:32.054Z,9.22
2023-03-20T17:05:01.897Z,9.22
2023-03-20T17:07:28.421Z,9.03
2023-03-20T17:09:58.295Z,8.95
2023-03-20T17:12:25.248Z,8.94
2023-03-20T17:14:51.666Z,8.82
2023-03-20T17:17:19.824Z,8.62
2023-03-20T17:19:46.369Z,8.37
2023-03-20T17:22:19.983Z,8.08
2023-03-20T17:24:46.706Z,7.87
2023-03-20T17:27:14.742Z,7.75
2023-03-20T17:29:47.924Z,7.16
2023-03-20T17:32:17.470Z,7.30
2023-03-20T17:34:45.725Z,7.29
2023-03-20T17:37:16.745Z,7.16
2023-03-20T17:39:43.542Z,6.97
2023-03-20T17:42:19.650Z,6.89
2023-03-20T17:44:49.212Z,6.94
2023-03-20T17:47:16.251Z,6.85
2023-03-20T17:49:43.233Z,6.82
2023-03-20T17:52:12.839Z,6.72
2023-03-20T17:54:39.608Z,6.59
2023-03-20T17:57:06.573Z,6.35
2023-03-20T17:59:34.300Z,6.32
2023-03-20T18:02:01.271Z,6.29
2023-03-20T18:04:28.005Z,6.30
2023-03-20T18:06:54.854Z,6.04
2023-03-20T18:09:21.632Z,5.97
2023-03-20T18:11:48.370Z,6.02
2023-03-20T18:14:15.084Z,5.97
2023-03-20T18:16:41.508Z,6.04
2023-03-20T18:19:10.724Z,5.87
2023-03-20T18:21:38.162Z,5.93
2023-03-20T18:24:04.815Z,5.86
2023-03-20T18:26:31.369Z,5.90
2023-03-20T18:28:57.820Z,5.84
2023-03-20T18:31:25.148Z,5.76
2023-03-20T18:33:52.137Z,5.72
2023-03-20T18:36:19.623Z,5.68
2023-03-20T18:38:46.077Z,5.61
2023-03-20T18:41:12.475Z,5.63
2023-03-20T18:43:39.433Z,5.65
2023-03-20T18:46:07.101Z,5.37
2023-03-20T18:48:33.549Z,5.33
2023-03-20T18:50:59.954Z,5.35
2023-03-20T18:53:27.094Z,5.30
2023-03-20T18:55:53.504Z,5.33
2023-03-20T18:58:29.080Z,5.27
2023-03-20T19:00:55.973Z,5.09
2023-03-20T19:03:22.883Z,5.04
2023-03-20T19:05:49.943Z,5.10
2023-03-20T19:08:16.458Z,4.89
2023-03-20T19:10:43.015Z,4.63
2023-03-20T19:13:10.878Z,4.47
2023-03-20T19:15:37.378Z,4.64
2023-03-20T19:18:23.371Z,4.65
2023-03-20T19:20:51.709Z,4.63
2023-03-20T19:23:19.426Z,4.58
2023-03-20T19:25:46.707Z,4.72
2023-03-20T19:28:21.678Z,4.72
2023-03-20T19:30:48.530Z,4.49
2023-03-20T19:33:15.068Z,4.61
2023-03-20T19:36:01.081Z,4.71
2023-03-20T19:38:27.884Z,4.33
2023-03-20T19:40:54.406Z,4.37
2023-03-20T19:43:21.004Z,4.34
2023-03-20T19:45:47.930Z,4.39
2023-03-20T19:48:15.509Z,4.49
2023-03-20T19:50:43.841Z,4.33
2023-03-20T19:53:11.045Z,4.33
2023-03-20T19:55:37.689Z,4.26
2023-03-20T19:58:04.911Z,4.20
2023-03-20T20:03:24.675Z,4.12
2023-03-20T20:05:51.357Z,4.06
2023-03-20T20:08:28.320Z,4.07
2023-03-20T20:10:59.956Z,3.86
2023-03-20T20:13:30.275Z,3.85
2023-03-20T20:15:56.765Z,3.88
2023-03-20T20:18:23.606Z,3.82
2023-03-20T20:21:31.945Z,3.89
2023-03-20T20:23:36.653Z,3.83
2023-03-20T20:26:03.046Z,3.86
2023-03-20T20:28:29.540Z,3.80
2023-03-20T20:30:56.356Z,3.90
2023-03-20T20:33:27.712Z,3.73
2023-03-20T20:36:27.768Z,3.71
2023-03-20T20:38:50.364Z,3.52
2023-03-20T20:41:18.842Z,3.30
2023-03-20T20:46:31.763Z,3.19
2023-03-20T20:49:01.421Z,3.12
2023-03-20T20:51:33.535Z,3.18
2023-03-20T20:54:00.040Z,3.19
2023-03-20T20:56:26.880Z,3.17
2023-03-20T20:58:53.305Z,3.17
2023-03-20T21:01:20.872Z,3.11
2023-03-20T21:03:47.304Z,3.20
2023-03-20T21:06:13.891Z,3.19
2023-03-20T21:08:40.288Z,3.38
2023-03-20T21:11:06.796Z,3.39
2023-03-20T21:13:33.869Z,3.39
2023-03-20T21:16:00.428Z,3.29
2023-03-20T21:18:27.775Z,3.35
2023-03-20T21:20:54.316Z,3.39
2023-03-20T21:23:20.858Z,3.50
2023-03-20T21:25:48.461Z,3.51
2023-03-20T21:28:15.396Z,3.53
2023-03-20T21:30:49.969Z,3.51
2023-03-20T21:33:28.245Z,3.54
2023-03-20T21:35:54.661Z,3.64
2023-03-20T21:41:08.490Z,3.71
2023-03-20T21:43:34.902Z,3.70
2023-03-20T21:49:40.164Z,3.83
2023-03-20T21:54:59.406Z,3.79
2023-03-20T22:02:43.151Z,3.97
2023-03-20T22:05:48.718Z,3.92
2023-03-20T22:14:25.230Z,4.11
2023-03-20T22:19:56.057Z,4.11
2023-03-20T22:28:02.641Z,4.18
2023-03-20T22:31:08.438Z,4.15
2023-03-20T22:36:25.011Z,4.14
2023-03-20T22:44:50.095Z,4.07
2023-03-20T22:46:51.750Z,3.99
2023-03-20T22:49:18.210Z,3.89
2023-03-20T22:52:03.233Z,3.83
2023-03-20T22:54:31.029Z,3.76
2023-03-20T22:56:57.436Z,3.78
2023-03-20T22:59:23.831Z,3.76
2023-03-20T23:01:50.390Z,3.77
2023-03-20T23:04:16.857Z,3.80
2023-03-20T23:06:43.298Z,3.82
2023-03-20T23:09:15.357Z,3.80
2023-03-20T23:11:42.415Z,3.84
2023-03-20T23:14:18.143Z,3.81
2023-03-20T23:16:46.979Z,3.80
2023-03-20T23:19:13.538Z,3.80
2023-03-20T23:21:39.961Z,3.82
2023-03-20T23:24:06.516Z,3.85
2023-03-20T23:26:32.957Z,3.88
2023-03-20T23:28:59.402Z,3.86
2023-03-20T23:31:26.245Z,3.84
2023-03-20T23:33:56.133Z,3.71
2023-03-20T23:36:35.311Z,3.60
2023-03-20T23:39:03.390Z,3.42
2023-03-20T23:41:57.669Z,3.45
2023-03-20T23:44:16.321Z,3.40
2023-03-20T23:46:42.767Z,3.32
2023-03-20T23:49:09.286Z,3.32
2023-03-20T23:51:35.872Z,3.43
2023-03-20T23:54:02.381Z,3.35
2023-03-20T23:56:28.839Z,3.16
2023-03-20T23:59:03.176Z,3.28
